Time;durP1;ratioP1;P1;durP2;ratioP2;P2;SDS_P1;SDS_P2;PMS_P1;PMS_P2;Temp;Humidity;BMP_temperature;BMP_pressure;BME280_temperature;BME280_humidity;BME280_pressure;Samples;Min_cycle;Max_cycle;Signal;HPM_P1;HPM_P2
2024/01/14 00:02:05;;;;;;;0.20;0.20;;;;;;;-5.36;79.21;96888.75;5043231;28;20530;-62
2024/01/14 00:04:32;;;;;;;0.10;0.10;;;;;;;-4.65;79.21;97019.00;5058640;28;20431;-62
2024/01/14 00:06:58;;;;;;;0.10;0.10;;;;;;;-4.75;80.23;96979.31;5043507;28;20053;-62
2024/01/14 00:09:25;;;;;;;0.10;0.10;;;;;;;-5.65;79.78;96885.03;5043935;28;20063;-63
2024/01/14 00:11:52;;;;;;;0.20;0.20;;;;;;;-5.56;79.72;96863.69;5043110;28;20568;-62
2024/01/14 00:14:19;;;;;;;0.10;0.10;;;;;;;-4.73;80.23;96998.75;5043411;28;20049;-62
2024/01/14 00:16:45;;;;;;;0.10;0.10;;;;;;;-5.70;79.57;96846.47;5058231;28;20041;-64
2024/01/14 00:19:12;;;;;;;0.15;0.15;;;;;;;-4.62;79.26;97005.72;5042187;28;20057;-63
2024/01/14 00:21:39;;;;;;;0.10;0.10;;;;;;;-5.22;78.23;96919.50;5043270;28;20439;-62
2024/01/14 00:24:06;;;;;;;0.10;0.10;;;;;;;-4.66;78.97;96993.06;5043815;28;20057;-63
2024/01/14 00:26:33;;;;;;;0.10;0.10;;;;;;;-5.70;79.34;96858.06;5043062;28;20063;-64
2024/01/14 00:29:02;;;;;;;0.10;0.10;;;;;;;-4.87;79.85;96973.41;5063556;28;20128;-62
2024/01/14 00:31:29;;;;;;;0.20;0.20;;;;;;;-5.33;79.47;96917.09;5062879;28;20431;-62
2024/01/14 00:33:56;;;;;;;0.10;0.10;;;;;;;-5.37;79.33;96943.81;5064066;28;20049;-62
2024/01/14 00:36:23;;;;;;;0.10;0.10;;;;;;;-5.01;79.37;96980.47;5063513;28;20071;-63
2024/01/14 00:38:50;;;;;;;0.10;0.10;;;;;;;-5.01;79.63;96977.75;5061949;28;20048;-64
2024/01/14 00:41:16;;;;;;;0.10;0.10;;;;;;;-5.24;79.66;96942.44;5063329;28;20049;-62
2024/01/14 00:43:43;;;;;;;0.15;0.15;;;;;;;-5.06;79.92;97004.75;5063323;28;20442;-62
2024/01/14 00:46:11;;;;;;;0.10;0.10;;;;;;;-5.06;80.46;96982.38;5063262;28;20451;-63
2024/01/14 00:48:38;;;;;;;0.10;0.10;;;;;;;-5.46;81.03;96914.97;5061710;28;20056;-61
2024/01/14 00:51:05;;;;;;;0.10;0.10;;;;;;;-4.92;80.14;96978.84;5063168;28;20052;-61
2024/01/14 00:53:32;;;;;;;0.10;0.10;;;;;;;-4.98;79.84;96979.13;5063313;28;20048;-61
2024/01/14 00:55:58;;;;;;;0.10;0.10;;;;;;;-4.95;79.71;96973.97;5062981;28;20049;-62
2024/01/14 00:58:25;;;;;;;0.10;0.10;;;;;;;-5.14;79.55;96951.34;5062876;28;20446;-62
2024/01/14 01:00:53;;;;;;;0.10;0.10;;;;;;;-5.00;78.84;96976.69;5064730;28;20148;-61
2024/01/14 01:03:20;;;;;;;0.10;0.10;;;;;;;-5.46;79.33;96915.78;5066881;28;20173;-61
2024/01/14 01:05:46;;;;;;;0.10;0.10;;;;;;;-6.26;79.55;97015.50;5066762;28;20061;-62
2024/01/14 01:08:13;;;;;;;0.10;0.10;;;;;;;-6.08;79.50;96795.88;5066513;28;20136;-63
2024/01/14 01:10:40;;;;;;;0.10;0.10;;;;;;;-4.99;79.19;96967.50;5065918;28;20056;-63
2024/01/14 01:13:07;;;;;;;0.10;0.10;;;;;;;-5.71;79.07;96848.38;5066643;28;20052;-62
2024/01/14 01:15:34;;;;;;;0.10;0.10;;;;;;;-5.02;79.66;96962.66;5066333;28;20088;-61
2024/01/14 01:18:01;;;;;;;0.20;0.20;;;;;;;-5.08;79.84;96963.75;5064969;28;20059;-61
2024/01/14 01:20:28;;;;;;;0.10;0.10;;;;;;;-5.16;78.80;96940.00;5066157;28;20056;-62
2024/01/14 01:22:54;;;;;;;0.20;0.20;;;;;;;-5.01;79.19;96964.25;5065999;28;20537;-62
2024/01/14 01:25:21;;;;;;;0.10;0.10;;;;;;;-5.05;79.37;96951.59;5064355;28;20521;-61
2024/01/14 01:27:48;;;;;;;0.10;0.10;;;;;;;-5.07;79.04;96949.16;5064499;28;20537;-62
2024/01/14 01:30:15;;;;;;;0.10;0.10;;;;;;;-5.69;79.13;96897.44;5066388;28;20057;-61
2024/01/14 01:32:42;;;;;;;0.20;0.20;;;;;;;-5.29;78.94;96935.16;5064392;28;20110;-62
2024/01/14 01:35:09;;;;;;;0.20;0.20;;;;;;;-5.26;79.00;96934.63;5066138;28;20125;-62
2024/01/14 01:37:36;;;;;;;0.10;0.10;;;;;;;-5.24;79.42;96950.53;5066112;28;20056;-62
2024/01/14 01:40:04;;;;;;;0.10;0.10;;;;;;;-5.21;79.42;96931.91;5065803;28;20052;-62
2024/01/14 01:42:30;;;;;;;0.10;0.10;;;;;;;-5.17;78.99;96930.28;5065826;28;20056;-62
2024/01/14 01:44:57;;;;;;;0.10;0.10;;;;;;;-5.14;78.81;96916.25;5065715;28;20071;-62
2024/01/14 01:47:24;;;;;;;0.10;0.10;;;;;;;-5.23;78.71;96928.66;5065490;28;20052;-63
2024/01/14 01:49:51;;;;;;;0.10;0.10;;;;;;;-5.53;79.27;96874.75;5064446;28;20052;-61
2024/01/14 01:52:18;;;;;;;0.10;0.10;;;;;;;-5.19;79.58;96913.56;5065349;28;20135;-62
2024/01/14 01:54:48;;;;;;;0.10;0.10;;;;;;;-5.25;79.03;96920.03;5065440;28;20426;-61
2024/01/14 01:57:16;;;;;;;0.10;0.10;;;;;;;-5.24;78.99;96915.44;5065318;28;20056;-63
2024/01/14 01:59:43;;;;;;;0.10;0.10;;;;;;;-5.58;78.95;96855.88;5065492;28;20048;-62
2024/01/14 02:02:10;;;;;;;0.10;0.10;;;;;;;-5.20;78.88;96895.72;5065480;28;20466;-61
2024/01/14 02:04:37;;;;;;;0.10;0.10;;;;;;;-5.44;79.79;96904.72;5065734;28;20048;-60
2024/01/14 02:07:05;;;;;;;0.10;0.10;;;;;;;-5.88;79.97;96836.28;5065351;28;20423;-61
2024/01/14 02:09:33;;;;;;;0.10;0.10;;;;;;;-5.70;81.02;96879.66;5065308;28;20427;-61
2024/01/14 02:12:00;;;;;;;0.10;0.10;;;;;;;-5.59;81.61;96878.56;5064735;28;20053;-61
2024/01/14 02:14:27;;;;;;;0.10;0.10;;;;;;;-5.55;80.94;96871.56;5065211;28;20083;-60
2024/01/14 02:16:54;;;;;;;0.10;0.10;;;;;;;-5.82;81.71;96843.28;5051704;28;20053;-61
2024/01/14 02:19:21;;;;;;;0.10;0.10;;;;;;;-6.13;81.30;96826.31;5045028;28;20057;-62
2024/01/14 02:22:10;;;;;;;0.10;0.10;;;;;;;-5.66;81.45;96877.22;5044867;28;20060;-61
2024/01/14 02:24:38;;;;;;;0.10;0.10;;;;;;;-5.66;81.54;96869.94;5043799;28;20053;-60
2024/01/14 02:27:05;;;;;;;0.10;0.10;;;;;;;-5.64;81.41;96867.78;5044529;28;20057;-62
2024/01/14 02:29:35;;;;;;;0.10;0.10;;;;;;;-5.63;81.15;96864.00;5063161;28;20625;-62
2024/01/14 02:32:02;;;;;;;0.17;0.17;;;;;;;-5.79;81.25;96851.63;5064464;28;20151;-62
2024/01/14 02:34:29;;;;;;;0.10;0.10;;;;;;;-5.66;80.86;96871.84;5064850;28;20573;-61
2024/01/14 02:36:56;;;;;;;0.10;0.10;;;;;;;-6.42;80.63;96772.19;5064336;28;20068;-61
2024/01/14 02:39:23;;;;;;;0.10;0.10;;;;;;;-5.76;80.90;96871.84;5064794;28;20075;-62
2024/01/14 02:41:50;;;;;;;0.10;0.10;;;;;;;-5.57;80.65;96862.91;5063267;28;20052;-62
2024/01/14 02:44:17;;;;;;;0.10;0.10;;;;;;;-6.17;81.06;96792.94;5064033;28;20487;-61
2024/01/14 02:46:43;;;;;;;0.10;0.10;;;;;;;-5.56;81.11;96864.53;5064011;28;20055;-62
2024/01/14 02:49:10;;;;;;;0.10;0.10;;;;;;;-5.59;81.07;96859.69;5064475;28;20052;-61
2024/01/14 02:51:37;;;;;;;0.20;0.20;;;;;;;-5.90;81.02;96836.56;5064897;28;20053;-63
2024/01/14 02:54:04;;;;;;;0.10;0.10;;;;;;;-5.90;81.26;96828.47;5064784;28;20075;-62
2024/01/14 02:56:31;;;;;;;0.10;0.10;;;;;;;-5.81;81.39;96845.69;5063990;28;20288;-61
2024/01/14 02:58:57;;;;;;;0.10;0.10;;;;;;;-5.75;81.26;96847.28;5063125;28;20052;-62
2024/01/14 03:01:24;;;;;;;0.10;0.10;;;;;;;-5.60;80.10;96849.97;5064299;28;20059;-62
2024/01/14 03:03:51;;;;;;;0.10;0.10;;;;;;;-5.71;79.73;96851.06;5063104;28;20477;-61
2024/01/14 03:06:18;;;;;;;0.10;0.10;;;;;;;-5.72;79.99;96845.97;5063975;28;20136;-61
2024/01/14 03:08:45;;;;;;;0.10;0.10;;;;;;;-5.67;80.03;96844.03;5062402;28;20055;-61
2024/01/14 03:11:12;;;;;;;0.10;0.10;;;;;;;-6.89;79.37;96630.88;5063842;28;20133;-61
2024/01/14 03:13:39;;;;;;;0.10;0.10;;;;;;;-5.60;79.35;96841.88;5063960;28;20052;-61
2024/01/14 03:16:06;;;;;;;0.10;0.10;;;;;;;-6.30;79.66;96755.75;5064097;28;20055;-62
2024/01/14 03:18:32;;;;;;;0.10;0.10;;;;;;;-6.15;79.76;96863.53;5063939;28;20066;-62
2024/01/14 03:20:59;;;;;;;0.10;0.10;;;;;;;-5.68;79.27;96855.91;5062632;28;20065;-61
2024/01/14 03:23:26;;;;;;;0.10;0.10;;;;;;;-5.71;79.62;96851.06;5061887;28;20044;-62
2024/01/14 03:25:54;;;;;;;0.10;0.10;;;;;;;-5.83;80.05;96829.00;5064555;28;20045;-62
2024/01/14 03:28:20;;;;;;;0.10;0.10;;;;;;;-5.61;80.44;96840.25;5063660;28;20076;-62
2024/01/14 03:30:47;;;;;;;0.10;0.10;;;;;;;-6.49;80.31;96703.50;5063845;28;20138;-62
2024/01/14 03:33:14;;;;;;;0.10;0.10;;;;;;;-5.57;80.92;96846.72;5064155;28;20586;-61
2024/01/14 03:35:41;;;;;;;0.10;0.10;;;;;;;-5.55;80.59;96849.97;5063958;28;20051;-61
2024/01/14 03:38:08;;;;;;;0.10;0.10;;;;;;;-5.67;80.69;96824.34;5064293;28;20052;-61
2024/01/14 03:40:34;;;;;;;0.10;0.10;;;;;;;-5.56;80.57;96842.94;5063659;28;20438;-63
2024/01/14 03:43:01;;;;;;;0.10;0.10;;;;;;;-6.14;80.12;96741.19;5062240;28;20048;-62
2024/01/14 03:45:28;;;;;;;0.10;0.10;;;;;;;-5.60;79.94;96831.09;5063748;28;20163;-61
2024/01/14 03:47:55;;;;;;;0.10;0.10;;;;;;;-6.92;79.81;96613.34;5063641;28;20044;-63
2024/01/14 03:50:22;;;;;;;0.10;0.10;;;;;;;-5.69;79.83;96824.63;5062102;28;20040;-61
2024/01/14 03:52:49;;;;;;;0.10;0.10;;;;;;;-5.99;79.19;96756.53;5063836;28;20050;-61
2024/01/14 03:55:15;;;;;;;0.10;0.10;;;;;;;-5.76;79.38;96821.41;5064161;28;20040;-62
2024/01/14 03:57:42;;;;;;;0.10;0.10;;;;;;;-5.78;79.92;96822.75;5064049;28;20079;-61
2024/01/14 04:00:10;;;;;;;0.10;0.10;;;;;;;-5.84;80.53;96819.31;5062281;28;20427;-61
2024/01/14 04:02:37;;;;;;;0.13;0.13;;;;;;;-5.75;79.80;96817.63;5063680;28;20059;-62
2024/01/14 04:05:04;;;;;;;0.10;0.10;;;;;;;-6.63;79.13;96705.13;5063625;28;20072;-61
2024/01/14 04:07:30;;;;;;;0.10;0.10;;;;;;;-5.98;80.25;96818.25;5063544;28;20992;-62
2024/01/14 04:09:58;;;;;;;0.20;0.20;;;;;;;-5.81;79.77;96818.72;5063868;28;20067;-62
2024/01/14 04:12:27;;;;;;;0.10;0.10;;;;;;;-6.57;80.29;96712.94;5063190;28;20063;-62
2024/01/14 04:14:54;;;;;;;0.10;0.10;;;;;;;-5.94;80.24;96780.78;5063753;28;20048;-64
2024/01/14 04:17:21;;;;;;;0.10;0.10;;;;;;;-5.74;80.43;96816.56;5062117;28;20098;-61
2024/01/14 04:19:48;;;;;;;0.10;0.10;;;;;;;-5.70;80.41;96814.09;5063917;28;20138;-61
2024/01/14 04:22:14;;;;;;;0.10;0.10;;;;;;;-5.63;80.23;96814.66;5063262;28;20056;-62
2024/01/14 04:24:41;;;;;;;0.10;0.10;;;;;;;-5.68;79.65;96818.16;5063481;28;20064;-62
2024/01/14 04:27:08;;;;;;;0.10;0.10;;;;;;;-5.61;78.80;96829.47;5063120;28;20060;-62
2024/01/14 04:29:35;;;;;;;0.17;0.17;;;;;;;-5.66;78.57;96832.19;5063521;28;20056;-62
2024/01/14 04:32:02;;;;;;;0.10;0.10;;;;;;;-5.76;79.14;96818.72;5061239;28;20060;-63
2024/01/14 04:34:29;;;;;;;0.10;0.10;;;;;;;-5.69;79.39;96816.53;5063250;28;20092;-63
2024/01/14 04:36:56;;;;;;;0.10;0.10;;;;;;;-5.72;79.70;96838.66;5066770;28;20053;-60
2024/01/14 04:39:23;;;;;;;0.10;0.10;;;;;;;-6.39;79.26;96692.72;5066769;28;20438;-61
2024/01/14 04:41:49;;;;;;;0.10;0.10;;;;;;;-5.72;79.44;96844.03;5066958;28;20059;-61
2024/01/14 04:44:16;;;;;;;0.10;0.10;;;;;;;-6.05;79.14;96760.31;5065807;28;20054;-61
2024/01/14 04:46:43;;;;;;;0.10;0.10;;;;;;;-5.81;78.31;96824.13;5066860;28;20072;-61
2024/01/14 04:49:10;;;;;;;0.10;0.10;;;;;;;-5.85;78.37;96812.31;5066949;28;20048;-62
2024/01/14 04:51:38;;;;;;;0.10;0.10;;;;;;;-5.86;77.74;96816.06;5066550;28;20143;-60
2024/01/14 04:54:07;;;;;;;0.10;0.10;;;;;;;-5.88;77.95;96815.53;5067340;28;20114;-62
2024/01/14 04:56:34;;;;;;;0.10;0.10;;;;;;;-5.82;78.22;96827.94;5066440;28;20507;-62
2024/01/14 04:59:01;;;;;;;0.10;0.10;;;;;;;-5.85;78.44;96823.09;5066667;28;20122;-63
2024/01/14 05:01:29;;;;;;;0.10;0.10;;;;;;;-5.84;78.34;96821.19;5065121;28;20044;-63
2024/01/14 05:03:56;;;;;;;0.10;0.10;;;;;;;-6.13;78.42;96772.44;5061971;28;20056;-62
2024/01/14 05:06:23;;;;;;;0.10;0.10;;;;;;;-5.85;78.71;96809.59;5046543;28;20049;-62
2024/01/14 05:08:49;;;;;;;0.10;0.10;;;;;;;-6.34;79.48;96749.31;5046671;28;20059;-61
2024/01/14 05:11:16;;;;;;;0.10;0.10;;;;;;;-6.04;80.39;96808.56;5046354;28;20132;-62
2024/01/14 05:13:43;;;;;;;0.10;0.10;;;;;;;-5.98;80.24;96812.03;5046828;28;20060;-61
2024/01/14 05:16:10;;;;;;;0.10;0.10;;;;;;;-5.93;79.67;96803.94;5045256;28;20049;-62
2024/01/14 05:18:36;;;;;;;0.10;0.10;;;;;;;-6.12;79.42;96854.09;5044762;28;20064;-64
2024/01/14 05:21:06;;;;;;;0.10;0.10;;;;;;;-5.97;79.60;96798.28;5046012;28;20136;-61
2024/01/14 05:23:32;;;;;;;0.10;0.10;;;;;;;-5.97;79.19;96800.97;5046441;28;20053;-63
2024/01/14 05:26:02;;;;;;;0.10;0.10;;;;;;;-5.94;78.73;96873.22;5045654;28;20057;-61
2024/01/14 05:28:29;;;;;;;0.10;0.10;;;;;;;-5.95;78.13;96806.09;5058206;28;20472;-62
2024/01/14 05:30:56;;;;;;;0.10;0.10;;;;;;;-6.10;77.84;96781.88;5066059;28;20053;-62
2024/01/14 05:33:23;;;;;;;0.10;0.10;;;;;;;-6.07;78.19;96787.53;5065935;28;20136;-63
2024/01/14 05:35:50;;;;;;;0.20;0.20;;;;;;;-5.84;78.38;96803.13;5065918;28;20114;-61
2024/01/14 05:38:17;;;;;;;0.10;0.10;;;;;;;-5.83;78.36;96799.34;5066127;28;20561;-61
2024/01/14 05:40:44;;;;;;;0.10;0.10;;;;;;;-5.82;79.18;96792.88;5064277;28;20099;-62
2024/01/14 05:43:10;;;;;;;0.10;0.10;;;;;;;-5.80;79.35;96804.16;5064628;28;20139;-63
2024/01/14 05:45:37;;;;;;;0.10;0.10;;;;;;;-5.90;79.58;96782.66;5064795;28;20499;-62
2024/01/14 05:48:04;;;;;;;0.10;0.10;;;;;;;-5.96;79.68;96791.84;5064454;28;20078;-62
2024/01/14 05:50:31;;;;;;;0.10;0.10;;;;;;;-6.08;79.33;96748.16;5064375;28;20419;-61
2024/01/14 05:52:58;;;;;;;0.10;0.10;;;;;;;-5.98;78.80;96742.78;5066055;28;20059;-63
2024/01/14 05:55:25;;;;;;;0.10;0.10;;;;;;;-5.79;78.36;96768.03;5044637;28;20067;-61
2024/01/14 05:57:51;;;;;;;0.10;0.10;;;;;;;-6.53;78.38;96653.97;5044628;28;20377;-62
2024/01/14 06:00:22;;;;;;;0.10;0.10;;;;;;;-6.10;78.36;96798.84;5045991;28;20274;-61
2024/01/14 06:02:50;;;;;;;0.10;0.10;;;;;;;-5.66;78.38;96783.66;5044431;28;20077;-62
2024/01/14 06:05:17;;;;;;;0.10;0.10;;;;;;;-5.68;78.80;96785.00;5045406;28;20452;-61
2024/01/14 06:07:49;;;;;;;0.10;0.10;;;;;;;-5.66;79.21;96778.25;5045618;28;20044;-62
2024/01/14 06:10:16;;;;;;;0.13;0.13;;;;;;;-5.62;78.78;96773.91;5045663;28;20053;-63
2024/01/14 06:12:43;;;;;;;0.10;0.10;;;;;;;-5.50;78.06;96777.09;5045472;28;20052;-62
2024/01/14 06:15:10;;;;;;;0.10;0.10;;;;;;;-5.65;77.82;96762.84;5045759;28;20110;-66
2024/01/14 06:17:37;;;;;;;0.10;0.10;;;;;;;-5.61;77.81;96775.50;5045296;28;20504;-61
2024/01/14 06:20:04;;;;;;;0.10;0.10;;;;;;;-5.61;77.41;96759.34;5045370;28;20140;-62
2024/01/14 06:22:30;;;;;;;0.10;0.10;;;;;;;-5.41;77.51;96786.25;5045243;28;20102;-63
2024/01/14 06:24:57;;;;;;;0.10;0.10;;;;;;;-5.80;77.83;96720.56;5045439;28;20053;-62
2024/01/14 06:27:26;;;;;;;0.10;0.10;;;;;;;-5.53;78.69;96741.78;5044358;28;20068;-62
2024/01/14 06:29:52;;;;;;;0.10;0.10;;;;;;;-5.18;79.24;96796.41;5060466;28;20060;-62
2024/01/14 06:32:20;;;;;;;0.10;0.10;;;;;;;-4.97;78.56;96768.22;5044432;28;20084;-61
2024/01/14 06:34:47;;;;;;;0.20;0.20;;;;;;;-4.76;78.58;96771.63;5044653;28;20585;-61
2024/01/14 06:37:14;;;;;;;0.20;0.20;;;;;;;-4.53;77.75;96775.50;5044710;28;20582;-61
2024/01/14 06:39:41;;;;;;;0.13;0.13;;;;;;;-4.39;77.23;96771.09;5044984;28;20045;-62
2024/01/14 06:42:07;;;;;;;0.20;0.20;;;;;;;-4.32;76.94;96747.22;5044621;28;20088;-61
2024/01/14 06:44:38;;;;;;;0.10;0.10;;;;;;;-4.15;75.63;96761.13;5045017;28;20061;-61
2024/01/14 06:47:05;;;;;;;0.10;0.10;;;;;;;-4.10;74.75;96763.78;5043157;28;20558;-61
2024/01/14 06:49:32;;;;;;;0.10;0.10;;;;;;;-4.22;74.58;96728.22;5044677;28;20247;-61
2024/01/14 06:51:59;;;;;;;0.20;0.20;;;;;;;-4.36;74.79;96678.63;5043967;28;20164;-61
2024/01/14 06:54:26;;;;;;;0.20;0.20;;;;;;;-3.62;74.67;96760.09;5043043;28;20534;-61
2024/01/14 06:56:53;;;;;;;0.10;0.10;;;;;;;-3.49;74.03;96762.06;5044212;28;20059;-62
2024/01/14 06:59:21;;;;;;;0.10;0.10;;;;;;;-6.19;73.70;96299.28;5044735;28;20045;-61
2024/01/14 07:01:48;;;;;;;0.20;0.20;;;;;;;-3.00;73.66;96764.47;5043034;28;20472;-61
2024/01/14 07:04:16;;;;;;;0.20;0.20;;;;;;;-2.82;72.82;96763.66;5044173;28;20057;-63
2024/01/14 07:06:43;;;;;;;0.20;0.20;;;;;;;-2.66;72.20;96765.06;5044629;28;20057;-62
2024/01/14 07:09:12;;;;;;;0.20;0.20;;;;;;;-3.05;71.71;96673.22;5043580;28;20055;-63
2024/01/14 07:11:39;;;;;;;0.20;0.20;;;;;;;-2.35;71.64;96753.47;5043194;28;20049;-61
2024/01/14 07:14:06;;;;;;;0.20;0.20;;;;;;;-2.69;70.21;96687.06;5043701;28;20041;-62
2024/01/14 07:16:32;;;;;;;0.20;0.20;;;;;;;-2.10;70.25;96731.34;5043327;28;20048;-61
2024/01/14 07:18:59;;;;;;;0.20;0.20;;;;;;;-1.95;69.59;96739.25;5043004;28;20400;-62
2024/01/14 07:21:28;;;;;;;0.20;0.20;;;;;;;-2.28;69.02;96663.59;5042671;28;20127;-64
2024/01/14 07:23:55;;;;;;;0.20;0.20;;;;;;;-1.96;68.78;96715.91;5043937;28;20490;-62
2024/01/14 07:26:23;;;;;;;0.20;0.20;;;;;;;-1.52;68.87;96751.47;5043403;28;20048;-63
2024/01/14 07:28:52;;;;;;;0.20;0.20;;;;;;;-1.34;68.34;96754.41;5042554;28;20087;-61
2024/01/14 07:31:26;;;;;;;0.20;0.20;;;;;;;-1.26;68.45;96749.06;5043601;28;20049;-62
2024/01/14 07:33:53;;;;;;;0.20;0.20;;;;;;;-0.98;67.86;96744.41;5042699;28;20072;-62
2024/01/14 07:36:20;;;;;;;0.20;0.20;;;;;;;-0.93;67.07;96708.97;5043653;28;20055;-61
2024/01/14 07:38:50;;;;;;;0.20;0.20;;;;;;;-0.52;66.60;96747.75;5044168;28;20068;-62
2024/01/14 07:41:17;;;;;;;0.20;0.20;;;;;;;-0.30;66.40;96740.41;5043405;28;20052;-64
2024/01/14 07:43:44;;;;;;;0.20;0.20;;;;;;;-0.04;65.74;96743.31;5044323;28;20060;-62
2024/01/14 07:46:11;;;;;;;0.20;0.20;;;;;;;0.09;64.87;96728.03;5044257;28;20465;-62
2024/01/14 07:48:39;;;;;;;0.20;0.20;;;;;;;-0.37;64.73;96624.97;5042598;28;20059;-62
2024/01/14 07:51:06;;;;;;;0.20;0.20;;;;;;;0.38;64.41;96718.25;5043890;28;20076;-62
2024/01/14 07:53:33;;;;;;;0.20;0.20;;;;;;;0.51;64.45;96722.78;5043913;28;20130;-62
2024/01/14 07:56:01;;;;;;;0.20;0.20;;;;;;;0.68;63.73;96722.84;5043879;28;20158;-61
2024/01/14 07:58:28;;;;;;;0.20;0.20;;;;;;;0.73;62.82;96730.91;5043571;28;20057;-61
2024/01/14 08:00:55;;;;;;;0.20;0.20;;;;;;;0.21;61.27;96685.47;5042181;28;20530;-61
2024/01/14 08:03:29;;;;;;;0.20;0.20;;;;;;;0.36;63.33;96731.38;5043720;28;20049;-61
2024/01/14 08:05:58;;;;;;;0.20;0.20;;;;;;;-0.18;62.80;96682.72;5043659;28;20053;-63
2024/01/14 08:08:25;;;;;;;0.20;0.20;;;;;;;0.57;63.57;96726.97;5042208;28;20084;-61
2024/01/14 08:10:51;;;;;;;0.20;0.20;;;;;;;0.78;63.42;96733.50;5047337;28;20087;-64
2024/01/14 08:13:19;;;;;;;0.20;0.20;;;;;;;-0.02;62.63;96615.88;5046295;28;20057;-63
2024/01/14 08:15:47;;;;;;;0.25;0.25;;;;;;;0.55;62.69;96691.09;5047233;28;20106;-62
2024/01/14 08:18:27;;;;;;;0.20;0.20;;;;;;;0.88;62.87;96733.22;5046276;28;20107;-63
2024/01/14 08:20:55;;;;;;;0.20;0.20;;;;;;;0.64;62.69;96693.84;5046400;28;20068;-62
2024/01/14 08:23:21;;;;;;;0.20;0.20;;;;;;;0.97;62.56;96728.59;5045999;28;20077;-62
2024/01/14 08:25:48;;;;;;;0.20;0.20;;;;;;;0.62;61.50;96675.06;5045876;28;20444;-62
2024/01/14 08:28:15;;;;;;;0.20;0.20;;;;;;;1.17;61.44;96751.75;5046232;28;20080;-62
2024/01/14 08:30:42;;;;;;;0.20;0.20;;;;;;;1.10;61.31;96735.03;5047355;28;20049;-62
2024/01/14 08:33:09;;;;;;;0.20;0.20;;;;;;;0.20;63.24;96732.91;5047379;28;20060;-62
2024/01/14 08:35:36;;;;;;;0.20;0.20;;;;;;;-0.34;66.59;96733.16;5047094;28;20057;-62
2024/01/14 08:38:03;;;;;;;0.20;0.20;;;;;;;-0.63;67.42;96675.63;5047355;28;20107;-62
2024/01/14 08:40:30;;;;;;;0.20;0.20;;;;;;;-0.30;66.16;96696.88;5047699;28;20049;-61
2024/01/14 08:42:56;;;;;;;0.20;0.20;;;;;;;-0.04;66.35;96667.09;5047511;28;20045;-60
2024/01/14 08:45:23;;;;;;;0.20;0.20;;;;;;;0.57;64.43;96694.28;5047380;28;20465;-60
2024/01/14 08:47:50;;;;;;;0.20;0.20;;;;;;;0.81;63.24;96710.25;5047533;28;20053;-61
2024/01/14 08:50:18;;;;;;;0.20;0.20;;;;;;;0.40;62.89;96694.22;5047263;28;20118;-61
2024/01/14 08:52:45;;;;;;;0.20;0.20;;;;;;;0.60;63.68;96704.56;5046930;28;20064;-61
2024/01/14 08:55:13;;;;;;;0.20;0.20;;;;;;;0.34;64.87;96711.81;5046628;28;20045;-61
2024/01/14 08:57:40;;;;;;;0.20;0.20;;;;;;;0.51;64.37;96701.00;5046924;28;20098;-63
2024/01/14 09:00:09;;;;;;;0.20;0.20;;;;;;;0.23;64.57;96626.06;5045457;28;20056;-62
2024/01/14 09:02:36;;;;;;;0.20;0.20;;;;;;;1.04;62.95;96690.72;5045007;28;20068;-62
2024/01/14 09:05:05;;;;;;;0.20;0.20;;;;;;;1.61;63.33;96685.97;5046971;28;20049;-62
2024/01/14 09:07:33;;;;;;;0.20;0.20;;;;;;;1.89;60.28;96637.28;5046851;28;20053;-62
2024/01/14 09:10:00;;;;;;;0.20;0.20;;;;;;;2.72;58.69;96677.47;5045075;28;20217;-62
2024/01/14 09:12:27;;;;;;;0.20;0.20;;;;;;;2.31;58.59;96671.88;5046218;28;20057;-60
2024/01/14 09:14:54;;;;;;;0.20;0.20;;;;;;;2.59;58.32;96612.91;5045340;28;20053;-61
2024/01/14 09:17:21;;;;;;;0.20;0.20;;;;;;;2.90;57.32;96662.59;5046376;28;20139;-61
2024/01/14 09:19:48;;;;;;;0.20;0.20;;;;;;;2.40;56.17;96571.53;5046909;28;20059;-60
2024/01/14 09:22:14;;;;;;;0.20;0.20;;;;;;;3.02;56.23;96654.47;5045147;28;20428;-62
2024/01/14 09:24:45;;;;;;;0.20;0.20;;;;;;;2.91;55.68;96653.25;5046079;28;20072;-61
2024/01/14 09:27:15;;;;;;;0.28;0.28;;;;;;;2.80;56.35;96663.78;5044337;28;20101;-62
2024/01/14 09:29:42;;;;;;;0.20;0.20;;;;;;;2.51;56.94;96660.22;5041670;28;20057;-62
2024/01/14 09:32:09;;;;;;;0.20;0.20;;;;;;;2.09;57.77;96581.94;5025832;28;20626;-61
2024/01/14 09:34:36;;;;;;;0.20;0.20;;;;;;;2.90;56.61;96647.00;5026219;28;20053;-61
2024/01/14 09:37:03;;;;;;;0.25;0.25;;;;;;;2.54;55.68;96580.31;5025833;28;20053;-61
2024/01/14 09:39:30;;;;;;;0.20;0.20;;;;;;;2.82;55.22;96595.88;5026489;28;20053;-61
2024/01/14 09:42:02;;;;;;;0.30;0.30;;;;;;;3.37;54.00;96627.69;5025530;28;20080;-60
2024/01/14 09:44:29;;;;;;;0.20;0.20;;;;;;;2.65;56.14;96633.47;5026089;28;20084;-61
2024/01/14 09:46:56;;;;;;;0.20;0.20;;;;;;;2.84;55.21;96598.28;5026045;28;20061;-61
2024/01/14 09:49:23;;;;;;;0.25;0.25;;;;;;;3.28;54.16;96605.84;5041387;28;20441;-61
2024/01/14 09:51:50;;;;;;;0.25;0.25;;;;;;;3.60;53.78;96599.63;5025821;28;20057;-61
2024/01/14 09:54:17;;;;;;;0.20;0.20;;;;;;;2.69;54.28;96511.34;5025704;28;20061;-60
2024/01/14 09:56:44;;;;;;;0.30;0.30;;;;;;;3.70;54.02;96588.22;5024412;28;20060;-61
2024/01/14 09:59:16;;;;;;;0.20;0.20;;;;;;;4.00;53.41;96592.44;5025564;28;20104;-61
2024/01/14 10:01:44;;;;;;;0.30;0.30;;;;;;;4.00;53.44;96581.47;5025732;28;20049;-62
2024/01/14 10:04:13;;;;;;;0.30;0.30;;;;;;;4.31;53.38;96559.84;5025564;28;20505;-62
2024/01/14 10:06:43;;;;;;;0.30;0.30;;;;;;;4.45;51.47;96574.00;5025261;28;20413;-62
2024/01/14 10:09:11;;;;;;;0.30;0.30;;;;;;;4.33;52.26;96570.47;5025752;28;20139;-62
2024/01/14 10:11:38;;;;;;;0.30;0.30;;;;;;;4.45;52.20;96574.00;5025564;28;20053;-63
2024/01/14 10:14:04;;;;;;;0.30;0.30;;;;;;;4.65;51.50;96573.06;5025920;28;20049;-63
2024/01/14 10:16:37;;;;;;;0.30;0.30;;;;;;;4.71;50.62;96561.88;5025381;28;20055;-62
2024/01/14 10:19:20;;;;;;;0.30;0.30;;;;;;;4.84;51.61;96561.50;5024551;28;20041;-62
2024/01/14 10:21:48;;;;;;;0.30;0.30;;;;;;;5.08;51.33;96560.66;5025637;28;20041;-62
2024/01/14 10:24:35;;;;;;;0.30;0.30;;;;;;;5.34;51.31;96541.84;5025824;28;20057;-59
2024/01/14 10:27:02;;;;;;;0.32;0.32;;;;;;;5.48;50.61;96509.28;5024965;28;20064;-62
2024/01/14 10:29:29;;;;;;;0.30;0.30;;;;;;;5.72;49.99;96492.69;5042097;28;20122;-61
2024/01/14 10:31:56;;;;;;;0.40;0.40;;;;;;;6.36;48.22;96523.41;5044518;28;20053;-64
2024/01/14 10:34:24;;;;;;;0.40;0.40;;;;;;;6.65;47.51;96520.19;5043772;28;20056;-61
2024/01/14 10:36:59;;;;;;;0.40;0.40;;;;;;;6.86;47.21;96503.38;5044861;28;20053;-61
2024/01/14 10:39:32;;;;;;;0.40;0.40;;;;;;;7.30;46.82;96522.00;5043252;28;20088;-63
2024/01/14 10:42:00;;;;;;;0.40;0.40;;;;;;;7.69;45.61;96514.53;5044421;28;20053;-61
2024/01/14 10:44:28;;;;;;;0.40;0.40;;;;;;;7.50;44.29;96509.84;5044767;28;20059;-61
2024/01/14 10:46:56;;;;;;;0.50;0.50;;;;;;;7.82;43.04;96501.41;5044155;28;20106;-64
2024/01/14 10:49:25;;;;;;;0.40;0.40;;;;;;;7.30;43.02;96461.41;5043357;28;20508;-62
2024/01/14 10:52:10;;;;;;;0.40;0.40;;;;;;;6.71;43.89;96507.75;5044499;28;20056;-62
2024/01/14 10:54:42;;;;;;;0.40;0.40;;;;;;;7.10;43.77;96495.63;5044689;28;20084;-61
2024/01/14 10:57:19;;;;;;;0.40;0.40;;;;;;;7.12;43.59;96490.56;5044413;28;20470;-61
2024/01/14 10:59:48;;;;;;;0.40;0.40;;;;;;;7.26;43.81;96496.38;5044493;28;20163;-61
2024/01/14 11:02:18;;;;;;;0.40;0.40;;;;;;;7.04;43.88;96488.81;5044403;28;20392;-61
2024/01/14 11:04:44;;;;;;;0.40;0.40;;;;;;;5.15;47.43;96517.78;5044261;28;20060;-61
2024/01/14 11:07:12;;;;;;;0.40;0.40;;;;;;;5.26;46.77;96496.09;5044075;28;20059;-61
2024/01/14 11:09:41;;;;;;;0.32;0.32;;;;;;;5.22;46.93;96426.56;5044526;28;20053;-63
2024/01/14 11:12:19;;;;;;;0.40;0.40;;;;;;;6.26;46.60;96490.16;5044045;28;20052;-62
2024/01/14 11:15:06;;;;;;;0.40;0.40;;;;;;;6.35;46.50;96428.31;5038512;28;20065;-63
2024/01/14 11:17:49;;;;;;;0.40;0.40;;;;;;;7.23;46.09;96464.03;5024051;28;20522;-64
2024/01/14 11:20:19;;;;;;;0.40;0.40;;;;;;;7.58;44.71;96475.78;5024244;28;20072;-63
2024/01/14 11:22:49;;;;;;;0.40;0.40;;;;;;;7.39;43.83;96434.47;5022593;28;20157;-63
2024/01/14 11:25:31;;;;;;;0.40;0.40;;;;;;;6.73;44.88;96461.41;5024098;28;20077;-63
2024/01/14 11:27:59;;;;;;;0.40;0.40;;;;;;;6.95;43.67;96448.88;5042325;28;20127;-62
2024/01/14 11:30:49;;;;;;;0.40;0.40;;;;;;;6.89;43.98;96379.53;5043723;28;20143;-62
2024/01/14 11:33:26;;;;;;;0.40;0.40;;;;;;;7.39;44.13;96447.44;5044030;28;20061;-61
2024/01/14 11:35:54;;;;;;;0.40;0.40;;;;;;;6.90;43.29;96389.41;5042236;28;20648;-62
2024/01/14 11:38:34;;;;;;;0.40;0.40;;;;;;;6.21;44.56;96400.47;5044112;28;20053;-62
2024/01/14 11:41:30;;;;;;;0.40;0.40;;;;;;;6.55;43.48;96446.44;5043930;28;20056;-62